sensor_id;sensor_type;location;lat;lon;timestamp;pressure;altitude;pressure_sealevel;temperature;humidity
45050;BME280;61798;48.048;-1.928;2023-09-30T00:01:58;101928.63;;;10.39;100.00
45050;BME280;61798;48.048;-1.928;2023-09-30T00:04:05;101920.00;;;10.27;100.00
45050;BME280;61798;48.048;-1.928;2023-09-30T00:06:14;101912.16;;;10.25;100.00
45050;BME280;61798;48.048;-1.928;2023-09-30T00:08:20;101943.75;;;10.49;100.00
45050;BME280;61798;48.048;-1.928;2023-09-30T00:10:25;101922.59;;;10.37;100.00
45050;BME280;61798;48.048;-1.928;2023-09-30T00:12:31;101932.44;;;10.55;100.00
45050;BME280;61798;48.048;-1.928;2023-09-30T00:14:37;101914.41;;;10.47;100.00
45050;BME280;61798;48.048;-1.928;2023-09-30T00:16:43;101938.50;;;10.65;100.00
45050;BME280;61798;48.048;-1.928;2023-09-30T00:18:49;101952.09;;;10.72;100.00
45050;BME280;61798;48.048;-1.928;2023-09-30T00:20:56;101955.66;;;10.81;100.00
45050;BME280;61798;48.048;-1.928;2023-09-30T00:23:04;101939.84;;;10.70;100.00
45050;BME280;61798;48.048;-1.928;2023-09-30T00:25:11;101944.56;;;10.76;100.00
45050;BME280;61798;48.048;-1.928;2023-09-30T00:27:18;101947.97;;;10.86;100.00
45050;BME280;61798;48.048;-1.928;2023-09-30T00:29:26;101980.53;;;11.00;100.00
45050;BME280;61798;48.048;-1.928;2023-09-30T00:31:32;101972.09;;;10.95;100.00
45050;BME280;61798;48.048;-1.928;2023-09-30T00:33:39;101971.94;;;10.88;100.00
45050;BME280;61798;48.048;-1.928;2023-09-30T00:35:46;101984.19;;;10.91;100.00
45050;BME280;61798;48.048;-1.928;2023-09-30T00:37:53;101972.41;;;10.83;100.00
45050;BME280;61798;48.048;-1.928;2023-09-30T00:40:00;101955.44;;;10.66;100.00
45050;BME280;61798;48.048;-1.928;2023-09-30T00:42:07;101983.66;;;10.87;100.00
45050;BME280;61798;48.048;-1.928;2023-09-30T00:44:14;101984.38;;;10.97;100.00
45050;BME280;61798;48.048;-1.928;2023-09-30T00:46:31;101998.00;;;11.13;100.00
45050;BME280;61798;48.048;-1.928;2023-09-30T00:48:38;101990.09;;;11.11;100.00
45050;BME280;61798;48.048;-1.928;2023-09-30T00:50:44;101978.72;;;11.09;100.00
45050;BME280;61798;48.048;-1.928;2023-09-30T00:52:50;101991.47;;;11.15;100.00
45050;BME280;61798;48.048;-1.928;2023-09-30T00:54:57;101972.00;;;11.05;100.00
45050;BME280;61798;48.048;-1.928;2023-09-30T00:57:03;102012.25;;;11.13;100.00
45050;BME280;61798;48.048;-1.928;2023-09-30T00:59:10;101979.84;;;10.98;100.00
45050;BME280;61798;48.048;-1.928;2023-09-30T01:01:16;101959.09;;;11.08;100.00
45050;BME280;61798;48.048;-1.928;2023-09-30T01:03:24;101942.66;;;11.12;100.00
45050;BME280;61798;48.048;-1.928;2023-09-30T01:05:31;101952.91;;;11.16;100.00
45050;BME280;61798;48.048;-1.928;2023-09-30T01:07:38;101964.31;;;11.18;100.00
45050;BME280;61798;48.048;-1.928;2023-09-30T01:09:44;101954.75;;;11.16;100.00
45050;BME280;61798;48.048;-1.928;2023-09-30T01:11:50;101969.50;;;11.20;100.00
45050;BME280;61798;48.048;-1.928;2023-09-30T01:13:58;101955.41;;;11.09;100.00
45050;BME280;61798;48.048;-1.928;2023-09-30T01:16:05;101948.34;;;11.00;100.00
45050;BME280;61798;48.048;-1.928;2023-09-30T01:18:11;101941.28;;;10.99;100.00
45050;BME280;61798;48.048;-1.928;2023-09-30T01:20:18;101929.38;;;10.93;100.00
45050;BME280;61798;48.048;-1.928;2023-09-30T01:22:28;101943.97;;;10.99;100.00
45050;BME280;61798;48.048;-1.928;2023-09-30T01:24:40;101960.59;;;11.03;100.00
45050;BME280;61798;48.048;-1.928;2023-09-30T01:26:48;101947.47;;;10.91;100.00
45050;BME280;61798;48.048;-1.928;2023-09-30T01:28:54;101934.88;;;10.92;100.00
45050;BME280;61798;48.048;-1.928;2023-09-30T01:31:00;101945.00;;;11.06;100.00
45050;BME280;61798;48.048;-1.928;2023-09-30T01:33:06;101898.16;;;10.84;100.00
45050;BME280;61798;48.048;-1.928;2023-09-30T01:35:13;101907.41;;;10.89;100.00
45050;BME280;61798;48.048;-1.928;2023-09-30T01:37:19;101951.72;;;11.02;100.00
45050;BME280;61798;48.048;-1.928;2023-09-30T01:39:26;101938.59;;;10.99;100.00
45050;BME280;61798;48.048;-1.928;2023-09-30T01:41:32;101937.97;;;11.05;100.00
45050;BME280;61798;48.048;-1.928;2023-09-30T01:43:38;101948.72;;;11.14;100.00
45050;BME280;61798;48.048;-1.928;2023-09-30T01:45:43;101920.78;;;10.81;100.00
45050;BME280;61798;48.048;-1.928;2023-09-30T01:47:51;101950.31;;;10.89;100.00
45050;BME280;61798;48.048;-1.928;2023-09-30T01:49:58;101931.16;;;10.76;100.00
45050;BME280;61798;48.048;-1.928;2023-09-30T01:52:04;101943.94;;;10.82;100.00
45050;BME280;61798;48.048;-1.928;2023-09-30T01:54:10;101953.81;;;10.82;100.00
45050;BME280;61798;48.048;-1.928;2023-09-30T01:56:16;101939.56;;;10.81;100.00
45050;BME280;61798;48.048;-1.928;2023-09-30T01:58:23;101949.13;;;10.84;100.00
45050;BME280;61798;48.048;-1.928;2023-09-30T02:00:31;101932.03;;;10.85;100.00
45050;BME280;61798;48.048;-1.928;2023-09-30T02:02:38;101945.28;;;10.86;100.00
45050;BME280;61798;48.048;-1.928;2023-09-30T02:04:46;101946.94;;;10.87;100.00
45050;BME280;61798;48.048;-1.928;2023-09-30T02:06:51;101923.47;;;10.81;100.00
45050;BME280;61798;48.048;-1.928;2023-09-30T02:08:59;101931.38;;;10.91;100.00
45050;BME280;61798;48.048;-1.928;2023-09-30T02:11:05;101912.06;;;10.79;100.00
45050;BME280;61798;48.048;-1.928;2023-09-30T02:13:10;101907.38;;;10.81;100.00
45050;BME280;61798;48.048;-1.928;2023-09-30T02:15:16;101888.06;;;10.69;100.00
45050;BME280;61798;48.048;-1.928;2023-09-30T02:17:22;101918.81;;;10.92;100.00
45050;BME280;61798;48.048;-1.928;2023-09-30T02:19:28;101910.94;;;10.90;100.00
45050;BME280;61798;48.048;-1.928;2023-09-30T02:21:34;101891.81;;;10.85;100.00
45050;BME280;61798;48.048;-1.928;2023-09-30T02:23:41;101908.75;;;10.94;100.00
45050;BME280;61798;48.048;-1.928;2023-09-30T02:25:46;101888.78;;;10.88;100.00
45050;BME280;61798;48.048;-1.928;2023-09-30T02:27:52;101903.06;;;10.97;100.00
45050;BME280;61798;48.048;-1.928;2023-09-30T02:29:59;101909.09;;;10.99;100.00
45050;BME280;61798;48.048;-1.928;2023-09-30T02:32:06;101902.69;;;10.83;100.00
45050;BME280;61798;48.048;-1.928;2023-09-30T02:34:14;101899.31;;;10.73;100.00
45050;BME280;61798;48.048;-1.928;2023-09-30T02:36:20;101883.19;;;10.64;100.00
45050;BME280;61798;48.048;-1.928;2023-09-30T02:38:26;101901.84;;;10.74;100.00
45050;BME280;61798;48.048;-1.928;2023-09-30T02:40:33;101913.25;;;10.85;100.00
45050;BME280;61798;48.048;-1.928;2023-09-30T02:42:41;101901.88;;;10.83;100.00
45050;BME280;61798;48.048;-1.928;2023-09-30T02:44:48;101900.69;;;10.85;100.00
45050;BME280;61798;48.048;-1.928;2023-09-30T02:46:54;101902.03;;;10.81;100.00
45050;BME280;61798;48.048;-1.928;2023-09-30T02:49:04;101916.31;;;10.90;100.00
45050;BME280;61798;48.048;-1.928;2023-09-30T02:51:12;101917.19;;;11.16;100.00
45050;BME280;61798;48.048;-1.928;2023-09-30T02:53:19;101914.78;;;10.96;100.00
45050;BME280;61798;48.048;-1.928;2023-09-30T02:55:24;101894.44;;;10.68;100.00
45050;BME280;61798;48.048;-1.928;2023-09-30T02:57:30;101917.06;;;10.65;100.00
45050;BME280;61798;48.048;-1.928;2023-09-30T02:59:36;101912.03;;;10.62;100.00
45050;BME280;61798;48.048;-1.928;2023-09-30T03:01:42;101871.72;;;10.45;100.00
45050;BME280;61798;48.048;-1.928;2023-09-30T03:03:49;101869.09;;;10.54;100.00
45050;BME280;61798;48.048;-1.928;2023-09-30T03:05:55;101887.72;;;10.64;100.00
45050;BME280;61798;48.048;-1.928;2023-09-30T03:08:04;101875.81;;;10.58;100.00
45050;BME280;61798;48.048;-1.928;2023-09-30T03:10:11;101833.50;;;10.43;100.00
45050;BME280;61798;48.048;-1.928;2023-09-30T03:12:19;101833.03;;;10.48;100.00
45050;BME280;61798;48.048;-1.928;2023-09-30T03:14:25;101831.19;;;10.49;100.00
45050;BME280;61798;48.048;-1.928;2023-09-30T03:16:31;101836.69;;;10.47;100.00
45050;BME280;61798;48.048;-1.928;2023-09-30T03:18:39;101832.69;;;10.43;100.00
45050;BME280;61798;48.048;-1.928;2023-09-30T03:20:46;101844.88;;;10.37;100.00
45050;BME280;61798;48.048;-1.928;2023-09-30T03:22:53;101832.59;;;10.18;100.00
45050;BME280;61798;48.048;-1.928;2023-09-30T03:25:00;101849.03;;;10.23;100.00
45050;BME280;61798;48.048;-1.928;2023-09-30T03:27:07;101850.81;;;10.14;100.00
45050;BME280;61798;48.048;-1.928;2023-09-30T03:29:13;101840.66;;;9.91;100.00
45050;BME280;61798;48.048;-1.928;2023-09-30T03:31:20;101826.84;;;9.77;100.00
45050;BME280;61798;48.048;-1.928;2023-09-30T03:33:27;101829.84;;;9.74;100.00
45050;BME280;61798;48.048;-1.928;2023-09-30T03:35:34;101838.91;;;9.81;100.00
45050;BME280;61798;48.048;-1.928;2023-09-30T03:37:46;101838.22;;;9.79;100.00
45050;BME280;61798;48.048;-1.928;2023-09-30T03:39:55;101875.28;;;9.92;100.00
45050;BME280;61798;48.048;-1.928;2023-09-30T03:42:01;101866.06;;;9.87;100.00
45050;BME280;61798;48.048;-1.928;2023-09-30T03:44:08;101837.81;;;9.66;100.00
45050;BME280;61798;48.048;-1.928;2023-09-30T03:46:16;101840.13;;;9.60;100.00
45050;BME280;61798;48.048;-1.928;2023-09-30T03:48:22;101865.25;;;9.68;100.00
45050;BME280;61798;48.048;-1.928;2023-09-30T03:50:31;101863.09;;;9.71;100.00
45050;BME280;61798;48.048;-1.928;2023-09-30T03:52:38;101873.88;;;9.80;100.00
45050;BME280;61798;48.048;-1.928;2023-09-30T03:54:48;101874.22;;;9.58;100.00
45050;BME280;61798;48.048;-1.928;2023-09-30T03:56:55;101871.03;;;9.55;100.00
45050;BME280;61798;48.048;-1.928;2023-09-30T03:59:02;101882.78;;;9.62;100.00
45050;BME280;61798;48.048;-1.928;2023-09-30T04:01:09;101878.28;;;9.62;100.00
45050;BME280;61798;48.048;-1.928;2023-09-30T04:03:27;101855.06;;;9.45;100.00
45050;BME280;61798;48.048;-1.928;2023-09-30T04:05:33;101831.38;;;9.31;100.00
45050;BME280;61798;48.048;-1.928;2023-09-30T04:07:43;101849.38;;;9.48;100.00
45050;BME280;61798;48.048;-1.928;2023-09-30T04:09:49;101820.72;;;9.40;100.00
45050;BME280;61798;48.048;-1.928;2023-09-30T04:11:56;101816.75;;;9.44;100.00
45050;BME280;61798;48.048;-1.928;2023-09-30T04:14:08;101835.91;;;9.58;100.00
45050;BME280;61798;48.048;-1.928;2023-09-30T04:16:16;101844.34;;;9.63;100.00
45050;BME280;61798;48.048;-1.928;2023-09-30T04:18:25;101809.22;;;9.39;100.00
45050;BME280;61798;48.048;-1.928;2023-09-30T04:20:37;101860.22;;;9.65;100.00
45050;BME280;61798;48.048;-1.928;2023-09-30T04:22:46;101851.13;;;9.57;100.00
45050;BME280;61798;48.048;-1.928;2023-09-30T04:24:55;101845.66;;;9.40;100.00
45050;BME280;61798;48.048;-1.928;2023-09-30T04:27:02;101849.03;;;9.43;100.00
45050;BME280;61798;48.048;-1.928;2023-09-30T04:29:11;101805.34;;;9.15;100.00
45050;BME280;61798;48.048;-1.928;2023-09-30T04:31:19;101824.50;;;9.29;100.00
45050;BME280;61798;48.048;-1.928;2023-09-30T04:33:28;101827.19;;;9.29;100.00
45050;BME280;61798;48.048;-1.928;2023-09-30T04:35:35;101831.53;;;9.30;100.00
45050;BME280;61798;48.048;-1.928;2023-09-30T04:37:42;101833.50;;;9.28;100.00
45050;BME280;61798;48.048;-1.928;2023-09-30T04:39:49;101828.53;;;9.33;100.00
45050;BME280;61798;48.048;-1.928;2023-09-30T04:41:56;101841.59;;;9.36;100.00
45050;BME280;61798;48.048;-1.928;2023-09-30T04:44:03;101810.38;;;9.18;100.00
45050;BME280;61798;48.048;-1.928;2023-09-30T04:46:10;101831.28;;;9.41;100.00
45050;BME280;61798;48.048;-1.928;2023-09-30T04:48:19;101829.38;;;9.34;100.00
45050;BME280;61798;48.048;-1.928;2023-09-30T04:50:26;101818.94;;;9.22;100.00
45050;BME280;61798;48.048;-1.928;2023-09-30T04:52:33;101851.63;;;9.34;100.00
45050;BME280;61798;48.048;-1.928;2023-09-30T04:54:41;101831.25;;;9.15;100.00
45050;BME280;61798;48.048;-1.928;2023-09-30T04:56:48;101857.66;;;9.36;100.00
45050;BME280;61798;48.048;-1.928;2023-09-30T04:58:57;101871.50;;;9.31;100.00
45050;BME280;61798;48.048;-1.928;2023-09-30T05:01:05;101865.41;;;9.21;100.00
45050;BME280;61798;48.048;-1.928;2023-09-30T05:03:16;101863.66;;;9.12;100.00
45050;BME280;61798;48.048;-1.928;2023-09-30T05:05:22;101868.16;;;9.11;100.00
45050;BME280;61798;48.048;-1.928;2023-09-30T05:07:29;101860.72;;;9.05;100.00
45050;BME280;61798;48.048;-1.928;2023-09-30T05:09:36;101856.13;;;8.97;100.00
45050;BME280;61798;48.048;-1.928;2023-09-30T05:11:44;101870.13;;;9.09;100.00
45050;BME280;61798;48.048;-1.928;2023-09-30T05:13:53;101849.19;;;9.04;100.00
45050;BME280;61798;48.048;-1.928;2023-09-30T05:16:01;101853.78;;;9.12;100.00
45050;BME280;61798;48.048;-1.928;2023-09-30T05:18:08;101870.34;;;9.16;100.00
45050;BME280;61798;48.048;-1.928;2023-09-30T05:20:15;101874.56;;;9.18;100.00
45050;BME280;61798;48.048;-1.928;2023-09-30T05:22:27;101872.34;;;9.14;100.00
45050;BME280;61798;48.048;-1.928;2023-09-30T05:24:35;101869.44;;;9.07;100.00
45050;BME280;61798;48.048;-1.928;2023-09-30T05:26:42;101860.66;;;8.96;100.00
45050;BME280;61798;48.048;-1.928;2023-09-30T05:28:48;101851.78;;;8.96;100.00
45050;BME280;61798;48.048;-1.928;2023-09-30T05:30:55;101876.47;;;9.08;100.00
45050;BME280;61798;48.048;-1.928;2023-09-30T05:33:03;101868.44;;;9.08;100.00
45050;BME280;61798;48.048;-1.928;2023-09-30T05:35:09;101864.47;;;9.12;100.00
45050;BME280;61798;48.048;-1.928;2023-09-30T05:37:20;101859.03;;;9.04;100.00
45050;BME280;61798;48.048;-1.928;2023-09-30T05:39:27;101874.19;;;9.13;100.00
45050;BME280;61798;48.048;-1.928;2023-09-30T05:41:36;101893.88;;;9.12;100.00
45050;BME280;61798;48.048;-1.928;2023-09-30T05:43:43;101855.59;;;8.93;100.00
45050;BME280;61798;48.048;-1.928;2023-09-30T05:45:49;101871.09;;;8.90;100.00
45050;BME280;61798;48.048;-1.928;2023-09-30T05:48:02;101871.31;;;8.78;100.00
45050;BME280;61798;48.048;-1.928;2023-09-30T05:50:11;101849.84;;;8.70;100.00
45050;BME280;61798;48.048;-1.928;2023-09-30T05:52:21;101887.75;;;8.83;100.00
45050;BME280;61798;48.048;-1.928;2023-09-30T05:54:28;101893.94;;;8.84;100.00
45050;BME280;61798;48.048;-1.928;2023-09-30T05:56:38;101892.25;;;8.83;100.00
45050;BME280;61798;48.048;-1.928;2023-09-30T05:58:49;101873.91;;;8.70;100.00
45050;BME280;61798;48.048;-1.928;2023-09-30T06:00:55;101861.41;;;8.60;100.00
45050;BME280;61798;48.048;-1.928;2023-09-30T06:03:02;101877.13;;;8.73;100.00
45050;BME280;61798;48.048;-1.928;2023-09-30T06:05:13;101849.31;;;8.56;100.00
45050;BME280;61798;48.048;-1.928;2023-09-30T06:07:21;101891.56;;;8.81;100.00
45050;BME280;61798;48.048;-1.928;2023-09-30T06:09:29;101879.69;;;8.65;100.00
45050;BME280;61798;48.048;-1.928;2023-09-30T06:11:36;101878.81;;;8.74;100.00
45050;BME280;61798;48.048;-1.928;2023-09-30T06:13:41;101908.41;;;8.91;100.00
45050;BME280;61798;48.048;-1.928;2023-09-30T06:15:48;101908.78;;;8.96;100.00
45050;BME280;61798;48.048;-1.928;2023-09-30T06:17:59;101874.50;;;8.53;100.00
45050;BME280;61798;48.048;-1.928;2023-09-30T06:20:09;101895.88;;;8.63;100.00
45050;BME280;61798;48.048;-1.928;2023-09-30T06:22:21;101894.88;;;8.64;100.00
45050;BME280;61798;48.048;-1.928;2023-09-30T06:24:27;101878.56;;;8.57;100.00
45050;BME280;61798;48.048;-1.928;2023-09-30T06:26:33;101895.69;;;8.75;100.00
45050;BME280;61798;48.048;-1.928;2023-09-30T06:28:38;101893.16;;;8.73;100.00
45050;BME280;61798;48.048;-1.928;2023-09-30T06:30:47;101904.63;;;8.84;100.00
45050;BME280;61798;48.048;-1.928;2023-09-30T06:32:57;101880.53;;;8.65;100.00
45050;BME280;61798;48.048;-1.928;2023-09-30T06:35:06;101910.66;;;8.86;100.00
45050;BME280;61798;48.048;-1.928;2023-09-30T06:37:17;101917.00;;;8.85;100.00
45050;BME280;61798;48.048;-1.928;2023-09-30T06:39:25;101910.66;;;8.86;100.00
45050;BME280;61798;48.048;-1.928;2023-09-30T06:41:32;101911.34;;;8.88;100.00
45050;BME280;61798;48.048;-1.928;2023-09-30T06:43:38;101878.94;;;8.73;100.00
45050;BME280;61798;48.048;-1.928;2023-09-30T06:45:44;101903.16;;;8.99;100.00
45050;BME280;61798;48.048;-1.928;2023-09-30T06:47:53;101918.03;;;9.02;100.00
45050;BME280;61798;48.048;-1.928;2023-09-30T06:50:02;101909.56;;;9.07;100.00
45050;BME280;61798;48.048;-1.928;2023-09-30T06:52:15;101933.09;;;9.22;100.00
45050;BME280;61798;48.048;-1.928;2023-09-30T06:54:22;101925.75;;;9.24;100.00
45050;BME280;61798;48.048;-1.928;2023-09-30T06:56:28;101917.72;;;9.24;100.00
45050;BME280;61798;48.048;-1.928;2023-09-30T06:58:36;101914.84;;;9.17;100.00
45050;BME280;61798;48.048;-1.928;2023-09-30T07:00:41;101929.91;;;9.36;100.00
45050;BME280;61798;48.048;-1.928;2023-09-30T07:02:47;101916.16;;;9.31;100.00
45050;BME280;61798;48.048;-1.928;2023-09-30T07:07:33;101934.25;;;9.56;100.00
45050;BME280;61798;48.048;-1.928;2023-09-30T07:09:38;101954.44;;;9.68;100.00
45050;BME280;61798;48.048;-1.928;2023-09-30T07:11:46;101936.63;;;9.59;100.00
45050;BME280;61798;48.048;-1.928;2023-09-30T07:13:53;101945.34;;;9.61;100.00
45050;BME280;61798;48.048;-1.928;2023-09-30T07:16:01;101938.47;;;9.58;100.00
45050;BME280;61798;48.048;-1.928;2023-09-30T07:18:08;101968.09;;;9.83;100.00
45050;BME280;61798;48.048;-1.928;2023-09-30T07:20:14;101970.00;;;9.91;100.00
45050;BME280;61798;48.048;-1.928;2023-09-30T07:22:22;101946.63;;;9.75;100.00
45050;BME280;61798;48.048;-1.928;2023-09-30T07:24:29;101958.88;;;9.78;100.00
45050;BME280;61798;48.048;-1.928;2023-09-30T07:26:36;101959.28;;;9.91;100.00
45050;BME280;61798;48.048;-1.928;2023-09-30T07:28:43;101961.03;;;10.01;100.00
45050;BME280;61798;48.048;-1.928;2023-09-30T07:30:49;101971.97;;;10.08;100.00
45050;BME280;61798;48.048;-1.928;2023-09-30T07:32:55;101985.94;;;10.20;100.00
45050;BME280;61798;48.048;-1.928;2023-09-30T07:35:02;101989.31;;;10.22;100.00
45050;BME280;61798;48.048;-1.928;2023-09-30T07:37:08;101977.81;;;10.30;100.00
45050;BME280;61798;48.048;-1.928;2023-09-30T07:39:16;101972.13;;;10.33;100.00
45050;BME280;61798;48.048;-1.928;2023-09-30T07:41:24;101969.38;;;10.51;100.00
45050;BME280;61798;48.048;-1.928;2023-09-30T07:43:30;101956.59;;;10.36;100.00
45050;BME280;61798;48.048;-1.928;2023-09-30T07:45:37;101938.66;;;10.37;100.00
45050;BME280;61798;48.048;-1.928;2023-09-30T07:47:44;101959.47;;;10.70;100.00
45050;BME280;61798;48.048;-1.928;2023-09-30T07:49:51;101920.88;;;10.54;100.00
45050;BME280;61798;48.048;-1.928;2023-09-30T07:51:58;101921.75;;;10.72;100.00
45050;BME280;61798;48.048;-1.928;2023-09-30T07:54:06;101926.81;;;10.75;100.00
45050;BME280;61798;48.048;-1.928;2023-09-30T07:56:13;101928.03;;;10.89;100.00
45050;BME280;61798;48.048;-1.928;2023-09-30T07:58:20;101937.44;;;11.02;100.00
45050;BME280;61798;48.048;-1.928;2023-09-30T08:00:27;101930.22;;;10.94;100.00
45050;BME280;61798;48.048;-1.928;2023-09-30T08:02:35;101941.31;;;11.16;100.00
45050;BME280;61798;48.048;-1.928;2023-09-30T08:04:43;101937.81;;;11.15;100.00
45050;BME280;61798;48.048;-1.928;2023-09-30T08:06:50;101917.50;;;11.04;100.00
45050;BME280;61798;48.048;-1.928;2023-09-30T08:09:00;101936.50;;;11.36;100.00
45050;BME280;61798;48.048;-1.928;2023-09-30T08:11:06;101909.00;;;11.26;100.00
45050;BME280;61798;48.048;-1.928;2023-09-30T08:13:12;101931.16;;;11.45;100.00
45050;BME280;61798;48.048;-1.928;2023-09-30T08:15:18;101891.34;;;11.23;100.00
45050;BME280;61798;48.048;-1.928;2023-09-30T08:17:23;101892.41;;;11.30;100.00
45050;BME280;61798;48.048;-1.928;2023-09-30T08:19:29;101923.09;;;11.70;100.00
45050;BME280;61798;48.048;-1.928;2023-09-30T08:21:35;101927.94;;;11.83;100.00
45050;BME280;61798;48.048;-1.928;2023-09-30T08:23:41;101920.56;;;11.85;100.00
45050;BME280;61798;48.048;-1.928;2023-09-30T08:25:46;101906.44;;;11.83;100.00
45050;BME280;61798;48.048;-1.928;2023-09-30T08:27:52;101914.50;;;11.91;100.00
45050;BME280;61798;48.048;-1.928;2023-09-30T08:29:59;101923.72;;;12.14;100.00
45050;BME280;61798;48.048;-1.928;2023-09-30T08:32:05;101916.66;;;12.13;100.00
45050;BME280;61798;48.048;-1.928;2023-09-30T08:34:11;101903.09;;;11.89;100.00
45050;BME280;61798;48.048;-1.928;2023-09-30T08:36:18;101908.25;;;12.08;100.00
45050;BME280;61798;48.048;-1.928;2023-09-30T08:38:24;101913.63;;;12.08;100.00
45050;BME280;61798;48.048;-1.928;2023-09-30T08:40:31;101909.66;;;12.52;100.00
45050;BME280;61798;48.048;-1.928;2023-09-30T08:42:38;101908.25;;;12.73;100.00
45050;BME280;61798;48.048;-1.928;2023-09-30T08:44:44;101911.38;;;12.45;100.00
45050;BME280;61798;48.048;-1.928;2023-09-30T08:46:51;101896.25;;;12.44;100.00
45050;BME280;61798;48.048;-1.928;2023-09-30T08:49:00;101870.81;;;12.55;100.00
45050;BME280;61798;48.048;-1.928;2023-09-30T08:51:08;101893.72;;;12.83;100.00
45050;BME280;61798;48.048;-1.928;2023-09-30T08:53:15;101905.09;;;12.93;100.00
45050;BME280;61798;48.048;-1.928;2023-09-30T08:55:24;101896.66;;;12.96;100.00
45050;BME280;61798;48.048;-1.928;2023-09-30T08:57:33;101866.13;;;12.89;100.00
45050;BME280;61798;48.048;-1.928;2023-09-30T08:59:42;101882.38;;;13.19;100.00
45050;BME280;61798;48.048;-1.928;2023-09-30T09:01:49;101882.78;;;13.31;100.00
45050;BME280;61798;48.048;-1.928;2023-09-30T09:03:56;101891.41;;;13.27;100.00
45050;BME280;61798;48.048;-1.928;2023-09-30T09:06:03;101872.19;;;13.30;100.00
45050;BME280;61798;48.048;-1.928;2023-09-30T09:08:08;101874.84;;;13.15;100.00
45050;BME280;61798;48.048;-1.928;2023-09-30T09:10:15;101867.38;;;13.25;100.00
45050;BME280;61798;48.048;-1.928;2023-09-30T09:12:20;101836.59;;;13.43;100.00
45050;BME280;61798;48.048;-1.928;2023-09-30T09:14:42;101867.78;;;13.37;100.00
45050;BME280;61798;48.048;-1.928;2023-09-30T09:16:53;101830.50;;;13.49;100.00
45050;BME280;61798;48.048;-1.928;2023-09-30T09:19:21;101868.72;;;13.83;100.00
45050;BME280;61798;48.048;-1.928;2023-09-30T09:21:27;101847.66;;;13.48;100.00
45050;BME280;61798;48.048;-1.928;2023-09-30T09:23:39;101863.06;;;13.93;100.00
45050;BME280;61798;48.048;-1.928;2023-09-30T09:25:49;101853.03;;;14.02;100.00
45050;BME280;61798;48.048;-1.928;2023-09-30T09:27:55;101848.00;;;13.99;100.00
45050;BME280;61798;48.048;-1.928;2023-09-30T09:30:14;101838.53;;;13.88;100.00
45050;BME280;61798;48.048;-1.928;2023-09-30T09:32:20;101843.63;;;14.13;100.00
45050;BME280;61798;48.048;-1.928;2023-09-30T09:34:27;101819.66;;;14.03;100.00
45050;BME280;61798;48.048;-1.928;2023-09-30T09:36:43;101863.69;;;14.41;100.00
45050;BME280;61798;48.048;-1.928;2023-09-30T09:38:51;101825.00;;;14.34;100.00
45050;BME280;61798;48.048;-1.928;2023-09-30T09:41:00;101843.03;;;14.48;100.00
45050;BME280;61798;48.048;-1.928;2023-09-30T09:43:07;101825.78;;;14.27;100.00
45050;BME280;61798;48.048;-1.928;2023-09-30T09:45:14;101836.75;;;14.26;100.00
45050;BME280;61798;48.048;-1.928;2023-09-30T09:47:21;101853.84;;;14.70;100.00
45050;BME280;61798;48.048;-1.928;2023-09-30T09:49:29;101843.66;;;14.88;100.00
45050;BME280;61798;48.048;-1.928;2023-09-30T09:51:36;101823.56;;;14.90;100.00
45050;BME280;61798;48.048;-1.928;2023-09-30T09:53:42;101822.47;;;15.07;100.00
45050;BME280;61798;48.048;-1.928;2023-09-30T09:55:50;101843.50;;;15.11;100.00
45050;BME280;61798;48.048;-1.928;2023-09-30T09:57:57;101840.94;;;15.03;100.00
45050;BME280;61798;48.048;-1.928;2023-09-30T10:00:05;101836.59;;;15.09;100.00
45050;BME280;61798;48.048;-1.928;2023-09-30T10:02:17;101827.03;;;15.28;100.00
45050;BME280;61798;48.048;-1.928;2023-09-30T10:04:23;101829.47;;;15.23;100.00
45050;BME280;61798;48.048;-1.928;2023-09-30T10:06:29;101806.34;;;14.92;100.00
45050;BME280;61798;48.048;-1.928;2023-09-30T10:08:39;101831.78;;;15.26;100.00
45050;BME280;61798;48.048;-1.928;2023-09-30T10:10:48;101828.13;;;15.41;100.00
45050;BME280;61798;48.048;-1.928;2023-09-30T10:12:54;101825.84;;;15.38;100.00
45050;BME280;61798;48.048;-1.928;2023-09-30T10:15:01;101812.63;;;15.21;100.00
45050;BME280;61798;48.048;-1.928;2023-09-30T10:17:06;101824.75;;;15.61;100.00
45050;BME280;61798;48.048;-1.928;2023-09-30T10:19:30;101806.00;;;15.52;100.00
45050;BME280;61798;48.048;-1.928;2023-09-30T10:21:38;101825.34;;;15.56;100.00
45050;BME280;61798;48.048;-1.928;2023-09-30T10:23:45;101817.84;;;15.51;100.00
45050;BME280;61798;48.048;-1.928;2023-09-30T10:28:32;101813.03;;;15.82;100.00
45050;BME280;61798;48.048;-1.928;2023-09-30T10:33:17;101810.84;;;16.00;100.00
45050;BME280;61798;48.048;-1.928;2023-09-30T10:37:32;101754.56;;;15.74;100.00
45050;BME280;61798;48.048;-1.928;2023-09-30T10:39:58;101790.44;;;15.97;100.00
45050;BME280;61798;48.048;-1.928;2023-09-30T10:42:05;101783.81;;;16.00;100.00
45050;BME280;61798;48.048;-1.928;2023-09-30T10:46:33;101755.53;;;16.02;100.00
45050;BME280;61798;48.048;-1.928;2023-09-30T10:48:41;101783.88;;;16.13;100.00
45050;BME280;61798;48.048;-1.928;2023-09-30T10:50:57;101787.63;;;16.12;100.00
45050;BME280;61798;48.048;-1.928;2023-09-30T10:53:08;101775.16;;;16.11;100.00
45050;BME280;61798;48.048;-1.928;2023-09-30T10:55:19;101782.38;;;16.67;100.00
45050;BME280;61798;48.048;-1.928;2023-09-30T10:57:29;101755.88;;;16.42;100.00
45050;BME280;61798;48.048;-1.928;2023-09-30T10:59:35;101777.78;;;16.74;100.00
45050;BME280;61798;48.048;-1.928;2023-09-30T11:01:42;101769.41;;;16.35;100.00
45050;BME280;61798;48.048;-1.928;2023-09-30T11:03:50;101777.34;;;16.50;100.00
45050;BME280;61798;48.048;-1.928;2023-09-30T11:05:58;101777.94;;;16.38;100.00